Time;durP1;ratioP1;P1;durP2;ratioP2;P2;SDS_P1;SDS_P2;PMS_P1;PMS_P2;Temp;Humidity;BMP_temperature;BMP_pressure;BME280_temperature;BME280_humidity;BME280_pressure;Samples;Min_cycle;Max_cycle;Signal;HPM_P1;HPM_P2
2022/05/16 00:01:52;;;;;;;3.17;1.80;;;;;;;;;;6226242;28;20329;-73
2022/05/16 00:05:13;;;;;;;2.30;1.50;;;;;;;;;;6224815;28;20244;-72
2022/05/16 00:08:34;;;;;;;4.17;1.50;;;;;;;;;;6222049;28;20252;-73
2022/05/16 00:11:56;;;;;;;2.33;1.83;;;;;;;;;;6222927;28;20580;-72
2022/05/16 00:15:17;;;;;;;2.37;2.00;;;;;;;;;;6218307;28;20771;-73
2022/05/16 00:18:38;;;;;;;4.93;2.87;;;;;;;;;;6221835;28;20235;-72
2022/05/16 00:21:59;;;;;;;3.07;2.27;;;;;;;;;;6229917;28;20232;-73
2022/05/16 00:25:19;;;;;;;4.23;2.13;;;;;;;;;;6224577;28;20331;-73
2022/05/16 00:28:41;;;;;;;3.30;1.70;;;;;;;;;;6220293;28;20229;-73
2022/05/16 00:32:03;;;;;;;3.83;2.13;;;;;;;;;;6225036;28;20228;-72
2022/05/16 00:35:24;;;;;;;3.80;1.70;;;;;;;;;;6220609;28;20262;-73
2022/05/16 00:38:44;;;;;;;4.17;2.20;;;;;;;;;;6221778;28;20229;-72
2022/05/16 00:42:05;;;;;;;4.73;1.87;;;;;;;;;;6228963;28;20236;-74
2022/05/16 00:45:29;;;;;;;3.10;1.97;;;;;;;;;;6226442;28;20240;-73
2022/05/16 00:48:50;;;;;;;2.57;1.93;;;;;;;;;;6223141;28;20240;-72
2022/05/16 00:52:11;;;;;;;3.00;1.80;;;;;;;;;;6224274;28;20229;-73
2022/05/16 00:55:37;;;;;;;3.17;2.23;;;;;;;;;;6222083;28;20248;-73
2022/05/16 00:58:58;;;;;;;4.17;2.13;;;;;;;;;;6221181;28;20236;-73
2022/05/16 01:06:00;;;;;;;3.03;2.30;;;;;;;;;;6219428;28;20248;-73
2022/05/16 01:09:21;;;;;;;2.97;2.10;;;;;;;;;;6219052;28;20236;-74
2022/05/16 01:12:43;;;;;;;4.00;2.67;;;;;;;;;;6220106;28;20319;-73
2022/05/16 01:16:04;;;;;;;3.47;2.57;;;;;;;;;;6226281;28;20232;-73
2022/05/16 01:19:26;;;;;;;3.90;2.20;;;;;;;;;;6224788;28;20245;-73
2022/05/16 01:22:50;;;;;;;6.03;2.53;;;;;;;;;;6214768;28;20233;-73
2022/05/16 01:26:12;;;;;;;3.33;2.57;;;;;;;;;;6221822;28;20240;-73
2022/05/16 01:29:33;;;;;;;4.07;2.10;;;;;;;;;;6220939;28;23016;-74
2022/05/16 01:32:53;;;;;;;5.07;3.07;;;;;;;;;;6217418;28;20228;-73
2022/05/16 01:36:14;;;;;;;3.73;2.40;;;;;;;;;;6224183;28;20270;-73
2022/05/16 01:39:36;;;;;;;3.57;2.30;;;;;;;;;;6221543;28;20238;-73
2022/05/16 01:42:56;;;;;;;3.47;2.63;;;;;;;;;;6223815;28;20224;-73
2022/05/16 01:46:18;;;;;;;4.00;2.20;;;;;;;;;;6223648;28;20228;-73
2022/05/16 01:49:38;;;;;;;6.40;2.97;;;;;;;;;;6217484;28;20259;-73
2022/05/16 01:52:59;;;;;;;5.37;2.50;;;;;;;;;;6221772;28;20247;-73
2022/05/16 01:56:22;;;;;;;5.90;2.80;;;;;;;;;;6217442;28;20547;-73
2022/05/16 01:59:42;;;;;;;4.53;2.70;;;;;;;;;;6216344;28;20304;-73
2022/05/16 02:03:05;;;;;;;5.17;2.60;;;;;;;;;;6218670;28;20224;-73
2022/05/16 02:06:25;;;;;;;3.20;2.07;;;;;;;;;;6223306;28;20228;-73
2022/05/16 02:09:46;;;;;;;3.50;2.37;;;;;;;;;;6227681;28;20324;-73
2022/05/16 02:13:08;;;;;;;4.50;2.57;;;;;;;;;;6222041;28;20258;-74
2022/05/16 02:16:29;;;;;;;3.97;3.07;;;;;;;;;;6231152;28;20252;-74
2022/05/16 02:19:50;;;;;;;3.87;2.70;;;;;;;;;;6223500;28;20336;-73
2022/05/16 02:26:49;;;;;;;3.13;2.33;;;;;;;;;;6214368;28;20220;-73
2022/05/16 02:30:12;;;;;;;5.00;2.27;;;;;;;;;;6222678;28;20811;-73
2022/05/16 02:33:33;;;;;;;4.13;2.33;;;;;;;;;;6223743;28;20244;-74
2022/05/16 02:36:53;;;;;;;4.43;2.27;;;;;;;;;;6226169;28;20220;-74
2022/05/16 02:40:14;;;;;;;7.37;3.50;;;;;;;;;;6224306;28;20229;-74
2022/05/16 02:43:34;;;;;;;4.53;2.60;;;;;;;;;;6224802;28;20231;-73
2022/05/16 02:46:56;;;;;;;3.93;2.67;;;;;;;;;;6223537;28;20225;-72
2022/05/16 02:50:17;;;;;;;3.80;2.17;;;;;;;;;;6223255;28;20626;-73
2022/05/16 02:53:37;;;;;;;6.57;3.63;;;;;;;;;;6226208;28;20324;-74
2022/05/16 02:56:58;;;;;;;6.40;3.10;;;;;;;;;;6223986;28;20673;-74
2022/05/16 03:00:19;;;;;;;3.70;2.50;;;;;;;;;;6219738;28;20576;-73
2022/05/16 03:03:41;;;;;;;5.40;3.23;;;;;;;;;;6223972;28;20237;-73
2022/05/16 03:07:02;;;;;;;6.17;3.20;;;;;;;;;;6224425;28;20252;-74
2022/05/16 03:10:22;;;;;;;4.27;2.63;;;;;;;;;;6224816;28;20237;-73
2022/05/16 03:13:43;;;;;;;3.63;2.53;;;;;;;;;;6218203;28;20272;-74
2022/05/16 03:17:04;;;;;;;5.10;3.30;;;;;;;;;;6214118;28;20237;-72
2022/05/16 03:20:26;;;;;;;5.90;3.30;;;;;;;;;;6215277;28;20233;-73
2022/05/16 03:23:47;;;;;;;4.63;2.67;;;;;;;;;;6213543;28;20228;-73
2022/05/16 03:27:09;;;;;;;3.93;2.73;;;;;;;;;;6215875;28;20317;-74
2022/05/16 03:30:29;;;;;;;5.50;2.73;;;;;;;;;;6214592;28;20330;-73
2022/05/16 03:33:51;;;;;;;6.57;3.10;;;;;;;;;;6204018;28;20229;-73
2022/05/16 03:37:13;;;;;;;3.07;2.13;;;;;;;;;;6216310;28;21814;-74
2022/05/16 03:40:45;;;;;;;4.60;2.83;;;;;;;;;;6223615;28;20232;-73
2022/05/16 03:44:06;;;;;;;7.50;3.53;;;;;;;;;;6224053;28;20233;-74
2022/05/16 03:47:26;;;;;;;4.77;3.03;;;;;;;;;;6219272;28;20225;-74
2022/05/16 03:50:47;;;;;;;7.63;3.37;;;;;;;;;;6213562;28;20233;-74
2022/05/16 03:54:09;;;;;;;3.30;3.00;;;;;;;;;;6223127;28;20237;-74
2022/05/16 03:57:29;;;;;;;5.07;2.90;;;;;;;;;;6224206;28;20229;-74
2022/05/16 04:00:50;;;;;;;4.53;3.27;;;;;;;;;;6222192;28;20220;-74
2022/05/16 04:04:11;;;;;;;3.93;2.93;;;;;;;;;;6225438;28;20233;-73
2022/05/16 04:07:31;;;;;;;3.73;2.20;;;;;;;;;;6223879;28;20240;-73
2022/05/16 04:10:53;;;;;;;5.00;3.60;;;;;;;;;;6220766;28;20233;-73
2022/05/16 04:14:13;;;;;;;6.37;2.70;;;;;;;;;;6223903;28;20242;-73
2022/05/16 04:17:34;;;;;;;5.33;2.80;;;;;;;;;;6216366;28;20244;-73
2022/05/16 04:20:54;;;;;;;5.07;2.70;;;;;;;;;;6225076;28;20229;-73
2022/05/16 04:24:15;;;;;;;4.17;2.90;;;;;;;;;;6226893;28;20220;-73
2022/05/16 04:27:38;;;;;;;5.70;2.77;;;;;;;;;;6218417;28;20236;-72
2022/05/16 04:30:58;;;;;;;5.30;3.43;;;;;;;;;;6220357;28;20622;-72
2022/05/16 04:34:19;;;;;;;3.07;2.73;;;;;;;;;;6224436;28;20221;-73
2022/05/16 04:37:40;;;;;;;5.23;3.30;;;;;;;;;;6226368;28;20518;-73
2022/05/16 04:44:40;;;;;;;4.17;2.50;;;;;;;;;;6222903;28;20248;-72
2022/05/16 04:48:01;;;;;;;5.23;2.77;;;;;;;;;;6221556;28;20228;-72
2022/05/16 04:51:22;;;;;;;8.20;3.33;;;;;;;;;;6224603;28;20256;-73
2022/05/16 04:54:42;;;;;;;4.10;2.60;;;;;;;;;;6222883;28;20630;-74
2022/05/16 04:58:03;;;;;;;6.27;3.83;;;;;;;;;;6225622;28;20658;-73
2022/05/16 05:01:25;;;;;;;7.03;3.40;;;;;;;;;;6212161;28;20260;-74
2022/05/16 05:04:46;;;;;;;7.87;3.07;;;;;;;;;;6219144;28;20232;-72
2022/05/16 05:08:07;;;;;;;6.80;2.97;;;;;;;;;;6219291;28;20346;-73
2022/05/16 05:15:15;;;;;;;4.27;3.37;;;;;;;;;;6205950;28;20528;-73
2022/05/16 05:18:37;;;;;;;5.07;2.67;;;;;;;;;;6223771;28;20590;-74
2022/05/16 05:21:58;;;;;;;4.87;2.33;;;;;;;;;;6218216;28;20752;-73
2022/05/16 05:25:19;;;;;;;5.97;3.13;;;;;;;;;;6222237;28;20656;-74
2022/05/16 05:28:41;;;;;;;7.63;2.90;;;;;;;;;;6215893;28;20232;-73
2022/05/16 05:32:03;;;;;;;5.73;2.63;;;;;;;;;;6222001;28;20245;-73
2022/05/16 05:35:26;;;;;;;4.07;2.70;;;;;;;;;;6222435;28;20221;-74
2022/05/16 05:38:51;;;;;;;5.10;2.60;;;;;;;;;;6207847;28;20236;-73
2022/05/16 05:42:11;;;;;;;4.73;2.27;;;;;;;;;;6224366;28;20721;-72
2022/05/16 05:45:32;;;;;;;3.57;2.50;;;;;;;;;;6207081;28;20257;-74
2022/05/16 05:48:53;;;;;;;5.53;2.60;;;;;;;;;;6214891;28;20233;-74
2022/05/16 05:52:16;;;;;;;4.33;2.60;;;;;;;;;;6225402;28;20228;-74
2022/05/16 05:55:36;;;;;;;5.90;3.50;;;;;;;;;;6222386;28;20283;-74
2022/05/16 05:58:58;;;;;;;7.80;3.37;;;;;;;;;;6224645;28;20227;-74
2022/05/16 06:02:18;;;;;;;3.40;2.27;;;;;;;;;;6219937;28;20221;-68
2022/05/16 06:05:39;;;;;;;4.40;2.60;;;;;;;;;;6221741;28;20236;-68
2022/05/16 06:09:01;;;;;;;4.43;2.43;;;;;;;;;;6218363;28;20236;-68
2022/05/16 06:12:21;;;;;;;5.73;3.07;;;;;;;;;;6226243;28;20229;-68
2022/05/16 06:15:42;;;;;;;4.07;2.60;;;;;;;;;;6224723;28;20256;-68
2022/05/16 06:19:02;;;;;;;4.87;2.63;;;;;;;;;;6215855;28;20228;-68
2022/05/16 06:22:23;;;;;;;4.83;2.93;;;;;;;;;;6223892;28;20607;-67
2022/05/16 06:25:45;;;;;;;7.70;3.33;;;;;;;;;;6228637;28;20680;-67
2022/05/16 06:29:06;;;;;;;5.70;3.10;;;;;;;;;;6227664;28;20525;-69
2022/05/16 06:32:26;;;;;;;5.90;3.10;;;;;;;;;;6215245;28;20252;-67
2022/05/16 06:35:48;;;;;;;5.17;2.70;;;;;;;;;;6217842;28;20232;-68
2022/05/16 06:39:08;;;;;;;5.77;3.10;;;;;;;;;;6228523;28;20606;-66
2022/05/16 06:42:30;;;;;;;4.63;2.73;;;;;;;;;;6227183;28;20224;-67
2022/05/16 06:45:51;;;;;;;4.03;2.80;;;;;;;;;;6224292;28;20225;-67
2022/05/16 06:49:12;;;;;;;5.53;3.13;;;;;;;;;;6222012;28;20616;-67
2022/05/16 06:52:33;;;;;;;4.37;3.00;;;;;;;;;;6219122;28;20260;-67
2022/05/16 06:55:53;;;;;;;4.27;3.43;;;;;;;;;;6227567;28;20247;-67
2022/05/16 06:59:15;;;;;;;4.83;3.23;;;;;;;;;;6222221;28;20228;-67
2022/05/16 07:02:35;;;;;;;5.63;2.77;;;;;;;;;;6222240;28;20509;-67
2022/05/16 07:05:56;;;;;;;4.73;3.07;;;;;;;;;;6222986;28;20270;-67
2022/05/16 07:09:17;;;;;;;6.27;3.40;;;;;;;;;;6225767;28;20917;-67
2022/05/16 07:12:38;;;;;;;3.67;2.60;;;;;;;;;;6225909;28;20232;-67
2022/05/16 07:16:00;;;;;;;4.88;2.75;;;;;;;;;;6218937;28;20744;-68
2022/05/16 07:19:20;;;;;;;6.25;3.28;;;;;;;;;;6222007;28;20373;-68
2022/05/16 07:22:41;;;;;;;6.07;2.45;;;;;;;;;;6217968;28;20228;-67
2022/05/16 07:29:40;;;;;;;5.47;2.58;;;;;;;;;;6217329;28;20232;-69
2022/05/16 07:33:03;;;;;;;6.20;2.83;;;;;;;;;;6227127;28;20228;-68
2022/05/16 07:36:24;;;;;;;4.90;2.42;;;;;;;;;;6217034;28;20253;-68
2022/05/16 07:39:44;;;;;;;6.18;2.60;;;;;;;;;;6211248;28;20248;-66
2022/05/16 07:43:05;;;;;;;4.18;2.55;;;;;;;;;;6224432;28;20745;-67
2022/05/16 07:46:26;;;;;;;4.78;2.85;;;;;;;;;;6224779;28;20229;-67
2022/05/16 07:49:48;;;;;;;7.35;2.25;;;;;;;;;;6223361;28;20236;-68
2022/05/16 07:53:11;;;;;;;4.72;2.10;;;;;;;;;;6226378;28;20312;-69
2022/05/16 07:56:32;;;;;;;6.05;2.92;;;;;;;;;;6224956;28;20233;-73
2022/05/16 07:59:53;;;;;;;4.18;2.45;;;;;;;;;;6219943;28;20719;-72
2022/05/16 08:03:14;;;;;;;6.68;3.03;;;;;;;;;;6221007;28;20224;-72
2022/05/16 08:06:36;;;;;;;6.80;2.60;;;;;;;;;;6227696;28;20859;-71
2022/05/16 08:13:48;;;;;;;3.97;2.70;;;;;;;;;;6162082;28;20230;-73
2022/05/16 08:17:08;;;;;;;3.50;2.00;;;;;;;;;;6223706;28;20237;-73
2022/05/16 08:20:29;;;;;;;5.60;2.58;;;;;;;;;;6219445;28;20606;-71
2022/05/16 08:23:52;;;;;;;6.00;2.30;;;;;;;;;;6213672;28;20339;-71
2022/05/16 08:27:12;;;;;;;5.82;2.90;;;;;;;;;;6225860;28;20808;-72
2022/05/16 08:30:33;;;;;;;4.93;2.47;;;;;;;;;;6212910;28;20233;-73
2022/05/16 08:33:53;;;;;;;4.35;2.40;;;;;;;;;;6218767;28;20912;-73
2022/05/16 08:40:55;;;;;;;4.80;2.85;;;;;;;;;;6206017;28;20240;-73
2022/05/16 08:44:21;;;;;;;2.78;2.22;;;;;;;;;;6227531;28;20225;-72
2022/05/16 08:47:47;;;;;;;5.30;2.28;;;;;;;;;;6221569;28;20318;-73
2022/05/16 08:51:12;;;;;;;4.07;2.38;;;;;;;;;;6224339;28;20239;-73
2022/05/16 08:54:36;;;;;;;2.97;1.80;;;;;;;;;;6217558;28;20228;-72
2022/05/16 08:58:00;;;;;;;2.53;1.80;;;;;;;;;;6205063;28;20840;-72
2022/05/16 09:01:24;;;;;;;3.45;1.63;;;;;;;;;;6220536;28;20229;-73
2022/05/16 09:04:48;;;;;;;4.43;2.35;;;;;;;;;;6222147;28;20508;-74
2022/05/16 09:08:13;;;;;;;4.75;1.92;;;;;;;;;;6227113;28;20232;-73
2022/05/16 09:11:38;;;;;;;4.63;2.70;;;;;;;;;;6222924;28;20232;-74
2022/05/16 09:15:17;;;;;;;5.00;2.38;;;;;;;;;;6227679;28;20259;-74
2022/05/16 09:18:41;;;;;;;4.18;2.10;;;;;;;;;;6206428;28;20233;-74
2022/05/16 09:22:05;;;;;;;4.88;2.10;;;;;;;;;;6218737;28;20229;-73
2022/05/16 09:25:29;;;;;;;3.80;2.25;;;;;;;;;;6214396;28;20646;-74
2022/05/16 09:28:51;;;;;;;5.97;2.25;;;;;;;;;;6227363;28;20486;-72
2022/05/16 09:32:18;;;;;;;2.75;2.28;;;;;;;;;;6216982;28;20246;-75
2022/05/16 09:35:42;;;;;;;3.22;2.17;;;;;;;;;;6217019;28;20240;-73
2022/05/16 09:39:04;;;;;;;6.22;5.45;;;;;;;;;;6222903;28;20228;-74
2022/05/16 09:42:27;;;;;;;3.25;1.88;;;;;;;;;;6226200;28;20232;-74
2022/05/16 09:45:50;;;;;;;2.85;1.40;;;;;;;;;;6223162;28;20228;-73
2022/05/16 09:49:15;;;;;;;2.80;1.73;;;;;;;;;;6213090;28;20232;-66
2022/05/16 09:52:37;;;;;;;2.55;1.88;;;;;;;;;;6216658;28;20232;-66
2022/05/16 09:56:02;;;;;;;4.35;2.28;;;;;;;;;;6223594;28;20618;-65
2022/05/16 09:59:33;;;;;;;3.08;1.60;;;;;;;;;;6209230;28;20228;-66
2022/05/16 10:02:55;;;;;;;2.90;1.60;;;;;;;;;;6213684;28;20240;-65
2022/05/16 10:06:28;;;;;;;3.40;2.05;;;;;;;;;;6227440;28;20323;-65
2022/05/16 10:09:50;;;;;;;4.18;2.78;;;;;;;;;;6220868;28;20778;-66
2022/05/16 10:13:10;;;;;;;3.25;2.00;;;;;;;;;;6226941;28;20237;-66
2022/05/16 10:16:32;;;;;;;3.10;2.55;;;;;;;;;;6220595;28;20353;-67
2022/05/16 10:19:55;;;;;;;4.70;1.95;;;;;;;;;;6208117;28;20304;-66
2022/05/16 10:23:20;;;;;;;4.75;1.90;;;;;;;;;;6223727;28;20319;-65
2022/05/16 10:26:42;;;;;;;2.78;1.90;;;;;;;;;;6208332;28;20605;-66
2022/05/16 10:30:07;;;;;;;2.42;1.40;;;;;;;;;;6225007;28;20232;-66
2022/05/16 10:33:29;;;;;;;5.97;1.42;;;;;;;;;;6222197;28;20310;-65
2022/05/16 10:36:52;;;;;;;3.08;1.77;;;;;;;;;;6227746;28;20228;-66
2022/05/16 10:40:19;;;;;;;2.53;1.80;;;;;;;;;;6225992;28;20590;-65
2022/05/16 10:43:45;;;;;;;3.17;2.65;;;;;;;;;;6224493;28;20237;-67
2022/05/16 10:47:10;;;;;;;4.22;1.80;;;;;;;;;;6221550;28;20236;-66
2022/05/16 10:50:35;;;;;;;4.07;2.10;;;;;;;;;;6226900;28;20225;-68
2022/05/16 10:53:59;;;;;;;3.33;1.97;;;;;;;;;;6218414;28;21247;-67
2022/05/16 10:57:29;;;;;;;2.28;1.90;;;;;;;;;;6209797;28;20232;-66
2022/05/16 11:00:53;;;;;;;3.90;1.70;;;;;;;;;;6194211;28;20984;-66
2022/05/16 11:04:26;;;;;;;4.90;1.90;;;;;;;;;;6215779;28;20625;-66
2022/05/16 11:07:52;;;;;;;4.05;2.20;;;;;;;;;;6222398;28;20540;-67
2022/05/16 11:11:20;;;;;;;3.17;2.03;;;;;;;;;;6228889;28;20232;-67
2022/05/16 11:14:47;;;;;;;3.67;2.20;;;;;;;;;;6225006;28;20232;-64
2022/05/16 11:18:13;;;;;;;4.10;1.40;;;;;;;;;;6222505;28;20245;-66
2022/05/16 11:21:38;;;;;;;3.00;2.03;;;;;;;;;;6224787;28;20232;-75
2022/05/16 11:25:04;;;;;;;4.25;1.98;;;;;;;;;;6230134;28;20256;-76
2022/05/16 11:28:29;;;;;;;2.75;1.60;;;;;;;;;;6215578;28;20323;-73
2022/05/16 11:32:00;;;;;;;4.93;1.95;;;;;;;;;;6226872;28;20260;-74
2022/05/16 11:35:27;;;;;;;2.63;1.60;;;;;;;;;;6221066;28;20228;-72
2022/05/16 11:38:51;;;;;;;3.38;1.92;;;;;;;;;;6219991;28;20230;-81
2022/05/16 11:42:17;;;;;;;2.92;1.88;;;;;;;;;;6224572;28;20615;-84
2022/05/16 11:45:57;;;;;;;3.53;2.45;;;;;;;;;;6231577;28;20236;-74
2022/05/16 11:49:21;;;;;;;2.75;1.88;;;;;;;;;;6190726;28;20236;-74
2022/05/16 11:52:49;;;;;;;4.20;1.98;;;;;;;;;;6223242;28;20236;-75
2022/05/16 12:03:48;;;;;;;3.30;1.63;;;;;;;;;;6217918;28;20267;-84
2022/05/16 12:07:16;;;;;;;3.35;2.42;;;;;;;;;;6226780;28;20250;-74
2022/05/16 12:10:53;;;;;;;3.30;2.17;;;;;;;;;;6229219;28;20320;-74
2022/05/16 12:14:23;;;;;;;3.05;2.10;;;;;;;;;;6226592;28;20248;-75
2022/05/16 12:17:49;;;;;;;5.70;2.35;;;;;;;;;;6229659;28;20232;-76
2022/05/16 12:21:12;;;;;;;7.72;1.88;;;;;;;;;;6218426;28;20249;-79
2022/05/16 12:24:41;;;;;;;3.65;1.88;;;;;;;;;;6229391;28;20240;-79
2022/05/16 12:28:21;;;;;;;3.75;2.03;;;;;;;;;;6212600;28;20228;-72
2022/05/16 12:31:49;;;;;;;3.47;1.95;;;;;;;;;;6218792;28;21438;-71
2022/05/16 12:35:11;;;;;;;2.67;1.70;;;;;;;;;;6219127;28;20231;-72
2022/05/16 12:38:32;;;;;;;2.95;1.65;;;;;;;;;;6213808;28;20233;-74
2022/05/16 12:42:01;;;;;;;2.63;2.35;;;;;;;;;;6223700;28;20387;-74
2022/05/16 12:45:33;;;;;;;4.22;1.75;;;;;;;;;;6219543;28;20507;-72
2022/05/16 12:49:16;;;;;;;2.92;2.00;;;;;;;;;;6221271;28;20224;-72
2022/05/16 12:52:56;;;;;;;2.17;1.60;;;;;;;;;;6207009;28;20232;-71
2022/05/16 12:56:22;;;;;;;3.38;2.20;;;;;;;;;;6223372;28;20229;-73
2022/05/16 12:59:49;;;;;;;2.65;1.63;;;;;;;;;;6221229;28;20228;-72
2022/05/16 13:03:18;;;;;;;4.65;2.42;;;;;;;;;;6223119;28;20232;-72
2022/05/16 13:06:45;;;;;;;3.15;1.80;;;;;;;;;;6207057;28;20255;-79
2022/05/16 13:10:09;;;;;;;3.75;2.38;;;;;;;;;;6217389;28;22198;-72
2022/05/16 13:13:39;;;;;;;4.05;2.42;;;;;;;;;;6214969;28;20241;-73
2022/05/16 13:17:03;;;;;;;2.95;2.47;;;;;;;;;;6223524;28;20229;-73
2022/05/16 13:20:25;;;;;;;2.53;2.15;;;;;;;;;;6218731;28;20225;-74
2022/05/16 13:23:46;;;;;;;2.90;2.60;;;;;;;;;;6215805;28;20220;-78
2022/05/16 13:30:45;;;;;;;3.38;2.13;;;;;;;;;;6204971;28;20614;-75
2022/05/16 13:34:14;;;;;;;5.35;2.63;;;;;;;;;;6207132;28;20349;-75
2022/05/16 13:37:42;;;;;;;3.88;1.70;;;;;;;;;;6211906;28;20224;-75
2022/05/16 13:41:03;;;;;;;4.53;1.83;;;;;;;;;;6219778;28;20718;-76
2022/05/16 13:44:24;;;;;;;3.77;1.97;;;;;;;;;;6213995;28;21226;-77
2022/05/16 13:47:45;;;;;;;2.45;1.90;;;;;;;;;;6214075;28;20622;-77
2022/05/16 13:51:07;;;;;;;3.28;2.38;;;;;;;;;;6213329;28;20237;-68
2022/05/16 13:54:29;;;;;;;3.97;1.50;;;;;;;;;;6219222;28;20236;-69
2022/05/16 13:57:50;;;;;;;3.60;1.67;;;;;;;;;;6204416;28;20241;-68
2022/05/16 14:01:12;;;;;;;10.48;2.53;;;;;;;;;;6213885;28;20232;-67
2022/05/16 14:04:37;;;;;;;3.80;2.45;;;;;;;;;;6219956;28;20225;-68
2022/05/16 14:07:59;;;;;;;2.28;2.08;;;;;;;;;;6221956;28;20260;-69
2022/05/16 14:11:21;;;;;;;4.50;2.65;;;;;;;;;;6225472;28;20233;-69
2022/05/16 14:14:42;;;;;;;2.80;1.80;;;;;;;;;;6226199;28;20228;-69
2022/05/16 14:18:04;;;;;;;11.85;2.30;;;;;;;;;;6222922;28;20236;-68
2022/05/16 14:21:26;;;;;;;3.08;2.42;;;;;;;;;;6222395;28;20232;-69
2022/05/16 14:24:50;;;;;;;4.68;2.17;;;;;;;;;;6224464;28;20657;-70
2022/05/16 14:28:17;;;;;;;3.92;2.65;;;;;;;;;;6221184;28;20384;-69
2022/05/16 14:31:41;;;;;;;7.20;2.45;;;;;;;;;;6220524;28;20229;-69
2022/05/16 14:35:03;;;;;;;3.63;1.60;;;;;;;;;;6218565;28;20225;-69
2022/05/16 14:38:25;;;;;;;3.33;2.38;;;;;;;;;;6218040;28;20249;-68
2022/05/16 14:41:50;;;;;;;3.47;1.77;;;;;;;;;;6228214;28;20232;-68
2022/05/16 14:45:19;;;;;;;5.30;2.17;;;;;;;;;;6217987;28;24856;-68
2022/05/16 14:48:39;;;;;;;5.05;2.25;;;;;;;;;;6220563;28;20228;-68
2022/05/16 14:52:02;;;;;;;2.45;2.08;;;;;;;;;;6220057;28;20594;-68
2022/05/16 14:55:25;;;;;;;3.90;1.70;;;;;;;;;;6223815;28;20224;-68
2022/05/16 14:58:46;;;;;;;2.58;2.38;;;;;;;;;;6219208;28;20228;-69
2022/05/16 15:05:45;;;;;;;6.47;2.03;;;;;;;;;;6222681;28;21782;-69
2022/05/16 15:09:08;;;;;;;3.78;2.47;;;;;;;;;;6221188;28;20268;-69
2022/05/16 15:12:29;;;;;;;4.05;2.97;;;;;;;;;;6219343;28;20232;-68
2022/05/16 15:15:51;;;;;;;2.53;1.90;;;;;;;;;;6213273;28;20232;-68
2022/05/16 15:19:12;;;;;;;4.45;2.92;;;;;;;;;;6221035;28;20853;-68
2022/05/16 15:22:33;;;;;;;3.10;1.90;;;;;;;;;;6229469;28;20271;-68
2022/05/16 15:25:54;;;;;;;5.57;2.25;;;;;;;;;;6220699;28;20225;-69
2022/05/16 15:29:15;;;;;;;5.28;2.97;;;;;;;;;;6218312;28;20236;-69
2022/05/16 15:32:37;;;;;;;4.93;2.35;;;;;;;;;;6222032;28;20705;-70
2022/05/16 15:35:58;;;;;;;3.42;2.60;;;;;;;;;;6219105;28;20233;-73
2022/05/16 15:39:21;;;;;;;3.92;2.38;;;;;;;;;;6223323;28;20228;-75
2022/05/16 15:42:41;;;;;;;4.97;2.40;;;;;;;;;;6222160;28;20359;-74
2022/05/16 15:46:02;;;;;;;5.13;1.67;;;;;;;;;;6221255;28;20719;-74
2022/05/16 15:49:24;;;;;;;3.13;2.40;;;;;;;;;;6217408;28;20323;-73
2022/05/16 15:52:45;;;;;;;4.82;2.55;;;;;;;;;;6210979;28;20224;-74
2022/05/16 15:56:06;;;;;;;5.43;2.75;;;;;;;;;;6216301;28;20224;-74
2022/05/16 15:59:26;;;;;;;6.25;2.80;;;;;;;;;;6211508;28;20236;-73
2022/05/16 16:02:50;;;;;;;2.78;2.30;;;;;;;;;;6213951;28;20374;-75
2022/05/16 16:09:50;;;;;;;4.00;2.33;;;;;;;;;;6221898;28;20557;-74
2022/05/16 16:13:11;;;;;;;6.50;2.40;;;;;;;;;;6217200;28;20328;-74
2022/05/16 16:16:31;;;;;;;6.97;2.20;;;;;;;;;;6224628;28;20228;-74
2022/05/16 16:19:52;;;;;;;7.28;3.13;;;;;;;;;;6219541;28;20267;-74
2022/05/16 16:23:14;;;;;;;5.65;3.10;;;;;;;;;;6222386;28;20232;-75
2022/05/16 16:26:35;;;;;;;3.45;1.88;;;;;;;;;;6219964;28;20233;-74
2022/05/16 16:29:55;;;;;;;3.70;2.55;;;;;;;;;;6216753;28;20244;-74
2022/05/16 16:33:17;;;;;;;4.80;2.40;;;;;;;;;;6220146;28;20666;-77
2022/05/16 16:36:39;;;;;;;4.50;2.92;;;;;;;;;;6218379;28;20637;-73
2022/05/16 16:40:01;;;;;;;3.63;1.73;;;;;;;;;;6219598;28;20241;-73
2022/05/16 16:43:27;;;;;;;3.88;1.98;;;;;;;;;;6219667;28;20237;-74
2022/05/16 16:46:49;;;;;;;5.82;3.03;;;;;;;;;;6219796;28;20232;-73
2022/05/16 16:50:11;;;;;;;4.22;3.05;;;;;;;;;;6215885;28;20615;-74
2022/05/16 16:57:31;;;;;;;5.95;3.00;;;;;;;;;;6220401;28;20220;-75
2022/05/16 17:00:51;;;;;;;8.80;3.80;;;;;;;;;;6224695;28;20232;-75
2022/05/16 17:04:11;;;;;;;10.50;7.55;;;;;;;;;;6221668;28;20233;-74
2022/05/16 17:07:33;;;;;;;10.68;4.90;;;;;;;;;;6224103;28;20220;-75
2022/05/16 17:10:56;;;;;;;5.20;2.90;;;;;;;;;;6217484;28;20228;-74
2022/05/16 17:14:18;;;;;;;7.35;4.93;;;;;;;;;;6218731;28;20593;-75
2022/05/16 17:17:38;;;;;;;6.78;4.93;;;;;;;;;;6213789;28;20224;-75
2022/05/16 17:21:00;;;;;;;8.00;3.67;;;;;;;;;;6220516;28;20245;-76
2022/05/16 17:24:21;;;;;;;9.75;5.45;;;;;;;;;;6220665;28;20228;-75
2022/05/16 17:27:42;;;;;;;8.35;3.90;;;;;;;;;;6217907;28;20326;-79
2022/05/16 17:31:04;;;;;;;8.15;4.78;;;;;;;;;;6230511;28;20248;-79
2022/05/16 17:34:25;;;;;;;6.57;3.58;;;;;;;;;;6226008;28;20232;-79
2022/05/16 17:37:46;;;;;;;5.78;3.45;;;;;;;;;;6218127;28;20229;-78
2022/05/16 17:41:09;;;;;;;3.65;3.35;;;;;;;;;;6227530;28;20345;-81
2022/05/16 17:44:30;;;;;;;4.43;2.25;;;;;;;;;;6219127;28;20252;-80
2022/05/16 17:47:52;;;;;;;3.45;2.53;;;;;;;;;;6220728;28;20245;-81
2022/05/16 17:51:22;;;;;;;3.40;2.17;;;;;;;;;;6225727;28;20241;-80
2022/05/16 17:54:43;;;;;;;5.30;3.05;;;;;;;;;;6225357;28;20232;-78
2022/05/16 17:58:07;;;;;;;3.65;2.30;;;;;;;;;;6225830;28;20217;-79
2022/05/16 18:01:27;;;;;;;3.95;2.20;;;;;;;;;;6225476;28;20224;-74
2022/05/16 18:04:50;;;;;;;3.80;2.47;;;;;;;;;;6218098;28;20232;-77
2022/05/16 18:08:11;;;;;;;6.78;3.47;;;;;;;;;;6212043;28;20275;-73
2022/05/16 18:15:23;;;;;;;4.97;2.58;;;;;;;;;;6171811;28;21972;-73
2022/05/16 18:18:44;;;;;;;5.25;3.22;;;;;;;;;;6215464;28;20241;-73
2022/05/16 18:22:09;;;;;;;5.95;3.03;;;;;;;;;;6220775;28;20503;-73
2022/05/16 18:25:31;;;;;;;4.43;2.20;;;;;;;;;;6202864;28;20229;-73
2022/05/16 18:28:54;;;;;;;5.38;2.63;;;;;;;;;;6217199;28;20714;-73
2022/05/16 18:32:16;;;;;;;10.50;4.50;;;;;;;;;;6219890;28;20308;-73
2022/05/16 18:35:36;;;;;;;6.05;2.80;;;;;;;;;;6213982;28;20232;-73
2022/05/16 18:38:59;;;;;;;3.58;2.88;;;;;;;;;;6217697;28;20229;-75
2022/05/16 18:53:19;;;;;;;3.28;2.60;;;;;;;;;;6220176;28;20346;-72
2022/05/16 18:56:41;;;;;;;5.45;2.63;;;;;;;;;;6218547;28;20344;-75
2022/05/16 19:00:03;;;;;;;5.10;2.83;;;;;;;;;;6216834;28;20237;-76
2022/05/16 19:03:25;;;;;;;4.07;3.30;;;;;;;;;;6223682;28;20229;-75
2022/05/16 19:06:46;;;;;;;5.28;3.42;;;;;;;;;;6222404;28;20228;-74
2022/05/16 19:10:08;;;;;;;3.53;2.63;;;;;;;;;;6218230;28;20236;-72
2022/05/16 19:13:30;;;;;;;5.45;3.10;;;;;;;;;;6217992;28;20498;-68
2022/05/16 19:16:52;;;;;;;5.82;3.00;;;;;;;;;;6214557;28;20248;-69
2022/05/16 19:20:13;;;;;;;5.28;3.72;;;;;;;;;;6211086;28;20252;-69
2022/05/16 19:23:33;;;;;;;6.82;2.95;;;;;;;;;;6225527;28;20628;-69
2022/05/16 19:26:54;;;;;;;6.00;5.13;;;;;;;;;;6229554;28;20224;-69
2022/05/16 19:33:55;;;;;;;7.47;3.45;;;;;;;;;;6222076;28;20237;-68
2022/05/16 19:37:16;;;;;;;6.10;4.32;;;;;;;;;;6225038;28;20607;-69
2022/05/16 19:40:36;;;;;;;7.88;4.95;;;;;;;;;;6223138;28;20220;-68
2022/05/16 19:43:57;;;;;;;6.00;2.92;;;;;;;;;;6224655;28;20220;-69
2022/05/16 19:47:19;;;;;;;5.45;2.70;;;;;;;;;;6225357;28;20228;-69
2022/05/16 19:50:40;;;;;;;5.85;3.20;;;;;;;;;;6227941;28;20228;-69
2022/05/16 19:54:01;;;;;;;4.65;2.80;;;;;;;;;;6226559;28;20241;-69
2022/05/16 19:57:22;;;;;;;4.63;2.20;;;;;;;;;;6228485;28;20803;-69
2022/05/16 20:00:45;;;;;;;4.65;2.53;;;;;;;;;;6224800;28;20701;-69
2022/05/16 20:04:07;;;;;;;4.60;2.53;;;;;;;;;;6219938;28;20232;-68
2022/05/16 20:07:28;;;;;;;4.57;2.75;;;;;;;;;;6221641;28;20228;-67
2022/05/16 20:10:49;;;;;;;5.47;2.25;;;;;;;;;;6223014;28;20232;-69
2022/05/16 20:14:10;;;;;;;2.85;2.08;;;;;;;;;;6223751;28;20233;-69
2022/05/16 20:17:31;;;;;;;4.28;2.53;;;;;;;;;;6220865;28;20228;-68
2022/05/16 20:20:53;;;;;;;5.68;2.72;;;;;;;;;;6211095;28;20248;-68
2022/05/16 20:27:52;;;;;;;6.00;2.00;;;;;;;;;;6224333;28;20229;-68
2022/05/16 20:31:12;;;;;;;3.88;2.35;;;;;;;;;;6218920;28;20240;-68
2022/05/16 20:34:33;;;;;;;3.50;3.13;;;;;;;;;;6213527;28;20260;-69
2022/05/16 20:37:55;;;;;;;3.47;2.58;;;;;;;;;;6220413;28;20232;-69
2022/05/16 20:41:16;;;;;;;6.38;3.80;;;;;;;;;;6222012;28;20228;-69
2022/05/16 20:44:37;;;;;;;5.93;2.83;;;;;;;;;;6219897;28;20228;-68
2022/05/16 20:47:59;;;;;;;3.47;2.63;;;;;;;;;;6221198;28;20252;-68
2022/05/16 20:51:19;;;;;;;4.85;2.78;;;;;;;;;;6224287;28;20256;-68
2022/05/16 20:54:41;;;;;;;5.95;3.15;;;;;;;;;;6224545;28;20232;-67
2022/05/16 20:58:03;;;;;;;3.60;2.25;;;;;;;;;;6217348;28;20595;-68
2022/05/16 21:01:23;;;;;;;3.83;2.67;;;;;;;;;;6217439;28;20754;-68
2022/05/16 21:04:45;;;;;;;9.02;2.33;;;;;;;;;;6217758;28;20241;-69
2022/05/16 21:08:05;;;;;;;5.50;2.90;;;;;;;;;;6210456;28;20249;-72
2022/05/16 21:11:27;;;;;;;5.55;2.70;;;;;;;;;;6208479;28;20819;-76
2022/05/16 21:14:48;;;;;;;3.90;2.72;;;;;;;;;;6223973;28;20332;-77
2022/05/16 21:18:09;;;;;;;4.80;2.30;;;;;;;;;;6224267;28;20232;-76
2022/05/16 21:21:30;;;;;;;6.00;2.85;;;;;;;;;;6214361;28;21790;-77
2022/05/16 21:24:50;;;;;;;3.67;2.50;;;;;;;;;;6217401;28;20228;-77